Skip Navigation Links
NOAA logo - Click to go to the NOAA homepage
NOAA's National Weather Service
Alaska Aviation Weather Unit
  NWS logo - Click to go to the NWS homepage
Left Navbar Graphic     09 AKDT = 17 GMT

   
NOAA is celebrating 200 years of science, service, and stewardship. Visit the NOAA 200th celebration Web site to learn more.
USA.gov is the U.S. Government's official Web portal to all Federal, state and local government Web resources and services.
Facebook
NWS on Facebook

Important Change Regarding the AAWU Web Presence

 

Over the last several months, the AAWU has been working to navigate its webpages to a nationally supported server. Security, as well as other needs, have necessitated the change.  In the process, we have made an effort to enhance the functionality of our website, as well as some of our products. As of June 20, 2017, aawu.arh.noaa.gov will be discontinued. The new AAWU web address is weather.gov/aawu. It is now live and will run in-parallel with the old site until it is discontinued. Please send any feedback or questions regarding the new webpages to nws.ar.aawu.webauthors@noaa.gov.  Thank you for your patience during this time of transition.
AAWU Home :: Display TAF Add Bookmark
TAF PAGA 271124Z 2712/2812 VRB06KT P6SM SCT050 BKN100 BKN200
     FM272100 VRB06KT P6SM VCTS SCT050CB BKN100 BKN200
     FM280300 VRB06KT P6SM VCSH SCT050 BKN100 BKN200
     FM280600 VRB06KT P6SM SCT050 BKN100 BKN200=

METAR PAGA 271157Z AUTO 12003KT 10SM SCT070 SCT085 03/01 A2999= METAR PAGA 271257Z AUTO 10006KT 10SM FEW038 SCT045 OVC095 04/01 A3000= METAR PAGA 271357Z AUTO 12008KT 10SM BKN060 OVC075 04/01 A3000= METAR PAGA 271457Z AUTO 12007KT 10SM SCT045 BKN055 OVC090 04/01 A3001= METAR PAGA 271557Z AUTO 15007KT 10SM OVC060 05/01 A3001= METAR PAGA 271657Z AUTO 12008KT 10SM BKN070 07/02 A3001=
 Alaska TAF Map

NOAA's National Weather Service
Alaska Aviation Weather Unit
6930 Sand Lake Road
Anchorage, AK 99502-1845
Disclaimer
Credits
Glossary
Privacy Policy
About Us
Career Opportunities
Contact AAWU Internet Services Site last modified: April, 17th 2012